sensor_id;sensor_type;location;lat;lon;timestamp;pressure;altitude;pressure_sealevel;temperature;humidity
75221;BME280;63802;53.232;6.570;2023-03-01T00:01:06;103308.53;;;-2.39;93.97
75221;BME280;63802;53.232;6.570;2023-03-01T00:03:32;103365.13;;;-2.04;93.94
75221;BME280;63802;53.232;6.570;2023-03-01T00:05:58;103315.28;;;-2.30;93.71
75221;BME280;63802;53.232;6.570;2023-03-01T00:08:26;103331.28;;;-2.23;93.96
75221;BME280;63802;53.232;6.570;2023-03-01T00:11:09;103366.13;;;-2.05;93.69
75221;BME280;63802;53.232;6.570;2023-03-01T00:13:35;103339.25;;;-2.17;93.82
75221;BME280;63802;53.232;6.570;2023-03-01T00:16:06;103313.84;;;-2.32;94.13
75221;BME280;63802;53.232;6.570;2023-03-01T00:18:32;103309.97;;;-2.36;93.67
75221;BME280;63802;53.232;6.570;2023-03-01T00:20:59;103298.06;;;-2.40;93.87
75221;BME280;63802;53.232;6.570;2023-03-01T00:23:24;103333.09;;;-2.17;94.04
75221;BME280;63802;53.232;6.570;2023-03-01T00:25:50;103317.94;;;-2.23;94.06
75221;BME280;63802;53.232;6.570;2023-03-01T00:28:17;103306.28;;;-2.35;93.71
75221;BME280;63802;53.232;6.570;2023-03-01T00:30:42;103336.78;;;-2.18;94.01
75221;BME280;63802;53.232;6.570;2023-03-01T00:33:08;103342.31;;;-2.13;94.13
75221;BME280;63802;53.232;6.570;2023-03-01T00:35:34;103323.03;;;-2.22;94.06
75221;BME280;63802;53.232;6.570;2023-03-01T00:38:04;103313.06;;;-2.39;93.80
75221;BME280;63802;53.232;6.570;2023-03-01T00:40:32;103319.78;;;-2.30;94.12
75221;BME280;63802;53.232;6.570;2023-03-01T00:42:59;103325.53;;;-2.27;94.08
75221;BME280;63802;53.232;6.570;2023-03-01T00:45:25;103306.28;;;-2.42;94.35
75221;BME280;63802;53.232;6.570;2023-03-01T00:47:51;103345.25;;;-2.21;94.26
75221;BME280;63802;53.232;6.570;2023-03-01T00:50:18;103352.22;;;-2.20;94.04
75221;BME280;63802;53.232;6.570;2023-03-01T00:52:44;103317.22;;;-2.43;94.09
75221;BME280;63802;53.232;6.570;2023-03-01T00:55:10;103307.16;;;-2.48;94.17
75221;BME280;63802;53.232;6.570;2023-03-01T00:57:35;103310.03;;;-2.49;94.40
75221;BME280;63802;53.232;6.570;2023-03-01T01:00:01;103321.13;;;-2.46;94.37
75221;BME280;63802;53.232;6.570;2023-03-01T01:02:28;103321.13;;;-2.46;94.08
75221;BME280;63802;53.232;6.570;2023-03-01T01:04:54;103351.69;;;-2.29;94.31
75221;BME280;63802;53.232;6.570;2023-03-01T01:07:19;103341.63;;;-2.33;94.21
75221;BME280;63802;53.232;6.570;2023-03-01T01:09:46;103346.09;;;-2.27;94.56
75221;BME280;63802;53.232;6.570;2023-03-01T01:12:14;103319.09;;;-2.50;94.42
75221;BME280;63802;53.232;6.570;2023-03-01T01:14:40;103292.00;;;-2.60;94.62
75221;BME280;63802;53.232;6.570;2023-03-01T01:17:06;103314.53;;;-2.43;94.33
75221;BME280;63802;53.232;6.570;2023-03-01T01:19:32;103292.00;;;-2.60;94.30
75221;BME280;63802;53.232;6.570;2023-03-01T01:21:57;103318.22;;;-2.44;94.52
75221;BME280;63802;53.232;6.570;2023-03-01T01:24:23;103312.09;;;-2.51;94.25
75221;BME280;63802;53.232;6.570;2023-03-01T01:26:49;103336.72;;;-2.36;94.68
75221;BME280;63802;53.232;6.570;2023-03-01T01:29:15;103310.03;;;-2.49;94.42
75221;BME280;63802;53.232;6.570;2023-03-01T01:31:41;103278.09;;;-2.69;94.41
75221;BME280;63802;53.232;6.570;2023-03-01T01:34:11;103319.88;;;-2.43;94.72
75221;BME280;63802;53.232;6.570;2023-03-01T01:36:37;103285.00;;;-2.55;94.44
75221;BME280;63802;53.232;6.570;2023-03-01T01:39:06;103292.78;;;-2.53;94.60
75221;BME280;63802;53.232;6.570;2023-03-01T01:41:33;103299.78;;;-2.52;94.80
75221;BME280;63802;53.232;6.570;2023-03-01T01:44:19;103274.84;;;-2.78;94.29
75221;BME280;63802;53.232;6.570;2023-03-01T01:49:24;103310.13;;;-2.62;94.38
75221;BME280;63802;53.232;6.570;2023-03-01T01:51:56;103303.56;;;-2.66;94.87
75221;BME280;63802;53.232;6.570;2023-03-01T01:54:51;103292.94;;;-2.80;94.17
75221;BME280;63802;53.232;6.570;2023-03-01T01:57:26;103265.06;;;-2.97;94.97
75221;BME280;63802;53.232;6.570;2023-03-01T01:59:57;103281.69;;;-2.88;94.80
75221;BME280;63802;53.232;6.570;2023-03-01T02:02:24;103291.28;;;-2.81;94.53
75221;BME280;63802;53.232;6.570;2023-03-01T02:04:56;103266.31;;;-2.99;94.40
75221;BME280;63802;53.232;6.570;2023-03-01T02:07:25;103298.09;;;-2.85;94.99
75221;BME280;63802;53.232;6.570;2023-03-01T02:09:52;103274.53;;;-3.01;94.65
75221;BME280;63802;53.232;6.570;2023-03-01T02:12:21;103286.63;;;-2.92;94.37
75221;BME280;63802;53.232;6.570;2023-03-01T02:14:48;103258.75;;;-3.09;94.71
75221;BME280;63802;53.232;6.570;2023-03-01T02:17:16;103276.59;;;-3.03;94.91
75221;BME280;63802;53.232;6.570;2023-03-01T02:22:33;103266.75;;;-3.09;94.50
75221;BME280;63802;53.232;6.570;2023-03-01T02:30:12;103231.31;;;-3.35;94.49
75221;BME280;63802;53.232;6.570;2023-03-01T02:32:40;103252.84;;;-3.17;94.79
75221;BME280;63802;53.232;6.570;2023-03-01T02:35:12;103238.28;;;-3.28;94.69
75221;BME280;63802;53.232;6.570;2023-03-01T02:37:39;103252.41;;;-3.21;94.79
75221;BME280;63802;53.232;6.570;2023-03-01T02:40:10;103244.03;;;-3.24;94.84
75221;BME280;63802;53.232;6.570;2023-03-01T02:42:47;103197.09;;;-3.52;94.88
75221;BME280;63802;53.232;6.570;2023-03-01T02:45:15;103236.47;;;-3.34;94.65
75221;BME280;63802;53.232;6.570;2023-03-01T02:47:40;103232.56;;;-3.38;94.30
75221;BME280;63802;53.232;6.570;2023-03-01T02:53:08;103244.66;;;-3.29;94.87
75221;BME280;63802;53.232;6.570;2023-03-01T02:55:36;103234.81;;;-3.35;94.45
75221;BME280;63802;53.232;6.570;2023-03-01T02:58:03;103229.88;;;-3.38;94.89
75221;BME280;63802;53.232;6.570;2023-03-01T03:00:37;103223.94;;;-3.40;94.39
75221;BME280;63802;53.232;6.570;2023-03-01T03:03:21;103205.31;;;-3.53;94.99
75221;BME280;63802;53.232;6.570;2023-03-01T03:05:47;103206.94;;;-3.52;94.73
75221;BME280;63802;53.232;6.570;2023-03-01T03:08:13;103199.19;;;-3.60;94.69
75221;BME280;63802;53.232;6.570;2023-03-01T03:10:42;103205.31;;;-3.53;94.78
75221;BME280;63802;53.232;6.570;2023-03-01T03:13:13;103184.41;;;-3.63;94.54
75221;BME280;63802;53.232;6.570;2023-03-01T03:15:39;103199.38;;;-3.55;94.74
75221;BME280;63802;53.232;6.570;2023-03-01T03:18:11;103227.03;;;-3.43;94.89
75221;BME280;63802;53.232;6.570;2023-03-01T03:20:39;103224.34;;;-3.43;94.71
75221;BME280;63802;53.232;6.570;2023-03-01T03:23:06;103210.66;;;-3.53;94.75
75221;BME280;63802;53.232;6.570;2023-03-01T03:25:31;103191.00;;;-3.65;94.56
75221;BME280;63802;53.232;6.570;2023-03-01T03:27:57;103227.88;;;-3.49;94.49
75221;BME280;63802;53.232;6.570;2023-03-01T03:30:29;103229.09;;;-3.45;94.99
75221;BME280;63802;53.232;6.570;2023-03-01T03:32:57;103236.91;;;-3.44;94.67
75221;BME280;63802;53.232;6.570;2023-03-01T03:35:26;103216.81;;;-3.59;94.83
75221;BME280;63802;53.232;6.570;2023-03-01T03:37:52;103219.28;;;-3.51;94.92
75221;BME280;63802;53.232;6.570;2023-03-01T03:40:30;103234.00;;;-3.42;95.00
75221;BME280;63802;53.232;6.570;2023-03-01T03:42:56;103236.09;;;-3.44;94.93
75221;BME280;63802;53.232;6.570;2023-03-01T03:45:21;103242.63;;;-3.40;94.92
75221;BME280;63802;53.232;6.570;2023-03-01T03:47:47;103214.75;;;-3.57;94.89
75221;BME280;63802;53.232;6.570;2023-03-01T03:50:15;103227.88;;;-3.49;95.15
75221;BME280;63802;53.232;6.570;2023-03-01T03:52:41;103220.88;;;-3.50;94.97
75221;BME280;63802;53.232;6.570;2023-03-01T03:55:09;103227.06;;;-3.50;94.78
75221;BME280;63802;53.232;6.570;2023-03-01T03:57:35;103219.69;;;-3.54;94.88
75221;BME280;63802;53.232;6.570;2023-03-01T04:00:01;103212.72;;;-3.55;94.96
75221;BME280;63802;53.232;6.570;2023-03-01T04:02:30;103216.81;;;-3.59;94.97
75221;BME280;63802;53.232;6.570;2023-03-01T04:04:55;103188.56;;;-3.80;94.90
75221;BME280;63802;53.232;6.570;2023-03-01T04:07:21;103214.38;;;-3.61;94.67
75221;BME280;63802;53.232;6.570;2023-03-01T04:09:46;103236.09;;;-3.44;95.09
75221;BME280;63802;53.232;6.570;2023-03-01T04:12:12;103238.53;;;-3.36;94.89
75221;BME280;63802;53.232;6.570;2023-03-01T04:14:45;103233.59;;;-3.39;95.03
75221;BME280;63802;53.232;6.570;2023-03-01T04:17:11;103236.09;;;-3.44;94.93
75221;BME280;63802;53.232;6.570;2023-03-01T04:19:36;103241.44;;;-3.51;94.80
75221;BME280;63802;53.232;6.570;2023-03-01T04:22:02;103237.97;;;-3.64;95.02
75221;BME280;63802;53.232;6.570;2023-03-01T04:24:35;103225.47;;;-3.83;94.82
75221;BME280;63802;53.232;6.570;2023-03-01T04:27:01;103239.88;;;-3.84;94.69
75221;BME280;63802;53.232;6.570;2023-03-01T04:29:26;103233.06;;;-3.93;94.61
75221;BME280;63802;53.232;6.570;2023-03-01T04:31:52;103222.66;;;-4.01;94.89
75221;BME280;63802;53.232;6.570;2023-03-01T04:34:18;103231.66;;;-4.02;95.20
75221;BME280;63802;53.232;6.570;2023-03-01T04:36:44;103216.88;;;-4.05;95.18
75221;BME280;63802;53.232;6.570;2023-03-01T04:39:10;103234.75;;;-4.05;95.13
75221;BME280;63802;53.232;6.570;2023-03-01T04:41:38;103218.97;;;-4.14;95.17
75221;BME280;63802;53.232;6.570;2023-03-01T04:44:05;103223.69;;;-4.16;94.81
75221;BME280;63802;53.232;6.570;2023-03-01T04:46:31;103223.44;;;-4.08;94.64
75221;BME280;63802;53.232;6.570;2023-03-01T04:48:57;103216.50;;;-4.09;94.59
75221;BME280;63802;53.232;6.570;2023-03-01T04:51:22;103229.22;;;-4.11;95.03
75221;BME280;63802;53.232;6.570;2023-03-01T04:53:49;103209.91;;;-4.13;94.64
75221;BME280;63802;53.232;6.570;2023-03-01T04:56:15;103208.91;;;-4.12;94.76
75221;BME280;63802;53.232;6.570;2023-03-01T04:58:41;103215.44;;;-4.08;95.09
75221;BME280;63802;53.232;6.570;2023-03-01T05:01:18;103208.69;;;-4.10;94.56
75221;BME280;63802;53.232;6.570;2023-03-01T05:03:49;103188.22;;;-4.23;95.13
75221;BME280;63802;53.232;6.570;2023-03-01T05:06:16;103185.94;;;-4.19;94.77
75221;BME280;63802;53.232;6.570;2023-03-01T05:08:42;103199.69;;;-4.16;94.72
75221;BME280;63802;53.232;6.570;2023-03-01T05:11:09;103189.00;;;-4.22;94.66
75221;BME280;63802;53.232;6.570;2023-03-01T05:13:36;103177.97;;;-4.32;95.16
75221;BME280;63802;53.232;6.570;2023-03-01T05:16:03;103178.38;;;-4.35;94.92
75221;BME280;63802;53.232;6.570;2023-03-01T05:18:30;103174.66;;;-4.41;94.98
75221;BME280;63802;53.232;6.570;2023-03-01T05:21:02;103174.66;;;-4.41;95.12
75221;BME280;63802;53.232;6.570;2023-03-01T05:23:30;103156.66;;;-4.52;95.01
75221;BME280;63802;53.232;6.570;2023-03-01T05:25:58;103155.22;;;-4.54;94.77
75221;BME280;63802;53.232;6.570;2023-03-01T05:28:25;103153.38;;;-4.54;94.65
75221;BME280;63802;53.232;6.570;2023-03-01T05:30:51;103164.25;;;-4.49;94.70
75221;BME280;63802;53.232;6.570;2023-03-01T05:33:17;103162.59;;;-4.50;94.71
75221;BME280;63802;53.232;6.570;2023-03-01T05:35:44;103141.06;;;-4.55;94.97
75221;BME280;63802;53.232;6.570;2023-03-01T05:38:11;103160.34;;;-4.46;94.71
75221;BME280;63802;53.232;6.570;2023-03-01T05:40:45;103157.88;;;-4.48;94.77
75221;BME280;63802;53.232;6.570;2023-03-01T05:43:13;103156.25;;;-4.49;94.77
75221;BME280;63802;53.232;6.570;2023-03-01T05:45:39;103159.91;;;-4.50;95.04
75221;BME280;63802;53.232;6.570;2023-03-01T05:48:06;103143.09;;;-4.50;95.13
75221;BME280;63802;53.232;6.570;2023-03-01T05:50:35;103141.28;;;-4.50;94.98
75221;BME280;63802;53.232;6.570;2023-03-01T05:53:04;103139.00;;;-4.53;94.73
75221;BME280;63802;53.232;6.570;2023-03-01T05:55:31;103142.28;;;-4.51;94.94
75221;BME280;63802;53.232;6.570;2023-03-01T05:57:59;103144.34;;;-4.53;94.89
75221;BME280;63802;53.232;6.570;2023-03-01T06:00:27;103135.53;;;-4.60;94.81
75221;BME280;63802;53.232;6.570;2023-03-01T06:02:54;103145.59;;;-4.49;94.73
75221;BME280;63802;53.232;6.570;2023-03-01T06:05:19;103143.09;;;-4.44;94.63
75221;BME280;63802;53.232;6.570;2023-03-01T06:07:45;103145.16;;;-4.46;94.73
75221;BME280;63802;53.232;6.570;2023-03-01T06:10:11;103147.19;;;-4.41;94.82
75221;BME280;63802;53.232;6.570;2023-03-01T06:12:38;103153.34;;;-4.41;95.18
75221;BME280;63802;53.232;6.570;2023-03-01T06:15:05;103134.13;;;-4.56;94.93
75221;BME280;63802;53.232;6.570;2023-03-01T06:17:33;103127.53;;;-4.60;95.23
75221;BME280;63802;53.232;6.570;2023-03-01T06:20:11;103143.09;;;-4.44;94.81
75221;BME280;63802;53.232;6.570;2023-03-01T06:22:41;103141.88;;;-4.48;95.20
75221;BME280;63802;53.232;6.570;2023-03-01T06:25:08;103149.88;;;-4.41;95.02
75221;BME280;63802;53.232;6.570;2023-03-01T06:27:34;103156.63;;;-4.39;94.98
75221;BME280;63802;53.232;6.570;2023-03-01T06:30:00;103164.22;;;-4.36;94.84
75221;BME280;63802;53.232;6.570;2023-03-01T06:32:26;103172.81;;;-4.34;95.21
75221;BME280;63802;53.232;6.570;2023-03-01T06:34:52;103173.44;;;-4.32;95.28
75221;BME280;63802;53.232;6.570;2023-03-01T06:37:17;103164.84;;;-4.34;95.12
75221;BME280;63802;53.232;6.570;2023-03-01T06:39:43;103168.91;;;-4.25;94.77
75221;BME280;63802;53.232;6.570;2023-03-01T06:42:09;103169.34;;;-4.28;95.09
75221;BME280;63802;53.232;6.570;2023-03-01T06:44:38;103177.13;;;-4.20;94.75
75221;BME280;63802;53.232;6.570;2023-03-01T06:47:04;103173.84;;;-4.15;95.42
75221;BME280;63802;53.232;6.570;2023-03-01T06:49:29;103174.25;;;-4.12;94.88
75221;BME280;63802;53.232;6.570;2023-03-01T06:51:56;103180.81;;;-4.08;95.33
75221;BME280;63802;53.232;6.570;2023-03-01T06:54:22;103190.66;;;-4.01;95.00
75221;BME280;63802;53.232;6.570;2023-03-01T06:56:48;103175.88;;;-3.97;95.06
75221;BME280;63802;53.232;6.570;2023-03-01T06:59:14;103189.81;;;-3.89;95.41
75221;BME280;63802;53.232;6.570;2023-03-01T07:01:40;103177.50;;;-3.90;95.38
75221;BME280;63802;53.232;6.570;2023-03-01T07:04:05;103191.41;;;-3.81;95.06
75221;BME280;63802;53.232;6.570;2023-03-01T07:06:31;103188.75;;;-3.81;95.29
75221;BME280;63802;53.232;6.570;2023-03-01T07:08:56;103185.03;;;-3.74;95.33
75221;BME280;63802;53.232;6.570;2023-03-01T07:11:22;103188.13;;;-3.70;94.82
75221;BME280;63802;53.232;6.570;2023-03-01T07:13:48;103176.25;;;-3.74;95.23
75221;BME280;63802;53.232;6.570;2023-03-01T07:16:14;103190.13;;;-3.59;95.24
75221;BME280;63802;53.232;6.570;2023-03-01T07:18:40;103191.97;;;-3.53;95.07
75221;BME280;63802;53.232;6.570;2023-03-01T07:21:07;103184.78;;;-3.46;94.80
75221;BME280;63802;53.232;6.570;2023-03-01T07:23:33;103175.31;;;-3.42;95.49
75221;BME280;63802;53.232;6.570;2023-03-01T07:25:59;103162.97;;;-3.36;95.00
75221;BME280;63802;53.232;6.570;2023-03-01T07:28:25;103180.09;;;-3.13;95.53
75221;BME280;63802;53.232;6.570;2023-03-01T07:30:51;103174.34;;;-3.10;95.18
75221;BME280;63802;53.232;6.570;2023-03-01T07:33:16;103179.19;;;-2.94;95.30
75221;BME280;63802;53.232;6.570;2023-03-01T07:35:42;103181.59;;;-2.86;95.37
75221;BME280;63802;53.232;6.570;2023-03-01T07:38:07;103181.13;;;-2.76;95.89
75221;BME280;63802;53.232;6.570;2023-03-01T07:40:34;103180.25;;;-2.70;95.61
75221;BME280;63802;53.232;6.570;2023-03-01T07:42:59;103174.25;;;-2.65;95.27
75221;BME280;63802;53.232;6.570;2023-03-01T07:45:27;103181.38;;;-2.53;95.77
75221;BME280;63802;53.232;6.570;2023-03-01T07:47:53;103190.53;;;-2.42;96.04
75221;BME280;63802;53.232;6.570;2023-03-01T07:50:19;103179.13;;;-2.31;95.67
75221;BME280;63802;53.232;6.570;2023-03-01T07:52:46;103185.63;;;-2.21;95.50
75221;BME280;63802;53.232;6.570;2023-03-01T07:55:11;103187.94;;;-2.06;95.86
75221;BME280;63802;53.232;6.570;2023-03-01T07:57:37;103186.19;;;-1.94;95.78
75221;BME280;63802;53.232;6.570;2023-03-01T08:00:02;103184.00;;;-1.79;95.68
75221;BME280;63802;53.232;6.570;2023-03-01T08:02:28;103190.41;;;-1.62;95.69
75221;BME280;63802;53.232;6.570;2023-03-01T08:04:53;103182.00;;;-1.47;95.65
75221;BME280;63802;53.232;6.570;2023-03-01T08:07:19;103165.53;;;-1.32;96.12
75221;BME280;63802;53.232;6.570;2023-03-01T08:09:44;103183.59;;;-0.98;95.82
75221;BME280;63802;53.232;6.570;2023-03-01T08:12:10;103181.03;;;-0.75;95.93
75221;BME280;63802;53.232;6.570;2023-03-01T08:14:36;103181.53;;;-0.55;96.27
75221;BME280;63802;53.232;6.570;2023-03-01T08:17:01;103175.66;;;-0.34;95.98
75221;BME280;63802;53.232;6.570;2023-03-01T08:19:28;103179.25;;;-0.17;96.02
75221;BME280;63802;53.232;6.570;2023-03-01T08:21:54;103179.72;;;0.04;96.26
75221;BME280;63802;53.232;6.570;2023-03-01T08:24:20;103171.44;;;0.17;96.17
75221;BME280;63802;53.232;6.570;2023-03-01T08:26:45;103182.84;;;0.47;96.05
75221;BME280;63802;53.232;6.570;2023-03-01T08:29:11;103178.94;;;0.66;96.03
75221;BME280;63802;53.232;6.570;2023-03-01T08:31:39;103176.72;;;0.91;96.05
75221;BME280;63802;53.232;6.570;2023-03-01T08:34:07;103173.84;;;1.09;95.93
75221;BME280;63802;53.232;6.570;2023-03-01T08:36:42;103175.53;;;1.27;95.82
75221;BME280;63802;53.232;6.570;2023-03-01T08:39:09;103178.16;;;1.39;95.67
75221;BME280;63802;53.232;6.570;2023-03-01T08:41:35;103183.75;;;1.54;95.56
75221;BME280;63802;53.232;6.570;2023-03-01T08:44:00;103153.38;;;1.53;95.21
75221;BME280;63802;53.232;6.570;2023-03-01T08:46:32;103166.09;;;1.74;95.36
75221;BME280;63802;53.232;6.570;2023-03-01T08:48:57;103162.75;;;1.84;95.38
75221;BME280;63802;53.232;6.570;2023-03-01T08:51:25;103161.19;;;1.88;95.26
75221;BME280;63802;53.232;6.570;2023-03-01T08:53:50;103176.47;;;2.04;94.77
75221;BME280;63802;53.232;6.570;2023-03-01T08:56:16;103169.63;;;2.13;94.67
75221;BME280;63802;53.232;6.570;2023-03-01T08:58:45;103170.28;;;2.20;94.28
75221;BME280;63802;53.232;6.570;2023-03-01T09:01:12;103172.66;;;2.38;94.43
75221;BME280;63802;53.232;6.570;2023-03-01T09:03:38;103163.31;;;2.46;94.00
75221;BME280;63802;53.232;6.570;2023-03-01T09:06:06;103181.50;;;2.55;93.74
75221;BME280;63802;53.232;6.570;2023-03-01T09:08:45;103167.81;;;2.84;93.27
75221;BME280;63802;53.232;6.570;2023-03-01T09:11:14;103173.50;;;3.09;93.14
75221;BME280;63802;53.232;6.570;2023-03-01T09:13:41;103157.16;;;3.20;92.71
75221;BME280;63802;53.232;6.570;2023-03-01T09:16:07;103166.16;;;3.31;92.15
75221;BME280;63802;53.232;6.570;2023-03-01T09:18:34;103158.72;;;3.43;91.24
75221;BME280;63802;53.232;6.570;2023-03-01T09:21:05;103157.84;;;3.37;90.66
75221;BME280;63802;53.232;6.570;2023-03-01T09:23:35;103157.13;;;3.47;90.12
75221;BME280;63802;53.232;6.570;2023-03-01T09:26:06;103143.41;;;3.54;89.72
75221;BME280;63802;53.232;6.570;2023-03-01T09:28:31;103144.59;;;3.68;88.90
75221;BME280;63802;53.232;6.570;2023-03-01T09:30:58;103149.75;;;3.74;88.10
75221;BME280;63802;53.232;6.570;2023-03-01T09:33:25;103145.59;;;3.98;87.48
75221;BME280;63802;53.232;6.570;2023-03-01T09:36:02;103140.53;;;4.07;86.27
75221;BME280;63802;53.232;6.570;2023-03-01T09:38:29;103145.25;;;4.32;84.79
75221;BME280;63802;53.232;6.570;2023-03-01T09:40:55;103142.88;;;4.45;82.74
75221;BME280;63802;53.232;6.570;2023-03-01T09:43:31;103142.13;;;4.60;81.33
75221;BME280;63802;53.232;6.570;2023-03-01T09:46:04;103152.75;;;4.97;81.41
75221;BME280;63802;53.232;6.570;2023-03-01T09:48:55;103157.69;;;5.10;79.99
75221;BME280;63802;53.232;6.570;2023-03-01T09:51:32;103143.34;;;5.14;77.18
75221;BME280;63802;53.232;6.570;2023-03-01T09:54:01;103150.66;;;5.34;74.96
75221;BME280;63802;53.232;6.570;2023-03-01T10:04:32;103146.47;;;6.37;72.50
75221;BME280;63802;53.232;6.570;2023-03-01T10:09:43;103140.97;;;6.57;69.80
75221;BME280;63802;53.232;6.570;2023-03-01T10:12:34;103135.00;;;6.50;68.08
75221;BME280;63802;53.232;6.570;2023-03-01T10:15:14;103152.84;;;6.71;68.00
75221;BME280;63802;53.232;6.570;2023-03-01T10:18:03;103147.91;;;6.79;67.57
75221;BME280;63802;53.232;6.570;2023-03-01T10:20:59;103143.84;;;7.20;66.01
75221;BME280;63802;53.232;6.570;2023-03-01T10:23:27;103147.75;;;7.42;65.16
75221;BME280;63802;53.232;6.570;2023-03-01T10:29:05;103142.94;;;7.63;63.96
75221;BME280;63802;53.232;6.570;2023-03-01T10:31:46;103129.22;;;7.78;63.00
75221;BME280;63802;53.232;6.570;2023-03-01T10:34:30;103143.69;;;7.97;61.87
75221;BME280;63802;53.232;6.570;2023-03-01T10:37:13;103143.03;;;8.10;62.34
75221;BME280;63802;53.232;6.570;2023-03-01T10:40:01;103138.53;;;8.25;61.70
75221;BME280;63802;53.232;6.570;2023-03-01T10:42:32;103115.41;;;8.27;61.59
75221;BME280;63802;53.232;6.570;2023-03-01T10:45:16;103111.00;;;8.31;60.94
75221;BME280;63802;53.232;6.570;2023-03-01T10:47:42;103119.34;;;8.58;60.89
75221;BME280;63802;53.232;6.570;2023-03-01T10:50:19;103109.41;;;8.49;61.12
75221;BME280;63802;53.232;6.570;2023-03-01T10:52:57;103099.22;;;8.78;61.57
75221;BME280;63802;53.232;6.570;2023-03-01T10:55:38;103103.19;;;9.04;60.78
75221;BME280;63802;53.232;6.570;2023-03-01T11:00:55;103115.09;;;9.08;60.47
75221;BME280;63802;53.232;6.570;2023-03-01T11:06:04;103115.88;;;8.90;60.68
75221;BME280;63802;53.232;6.570;2023-03-01T11:08:39;103116.25;;;9.02;61.03
75221;BME280;63802;53.232;6.570;2023-03-01T11:11:13;103118.97;;;9.02;60.47
75221;BME280;63802;53.232;6.570;2023-03-01T11:16:24;103119.44;;;9.09;59.69
75221;BME280;63802;53.232;6.570;2023-03-01T11:21:35;103116.47;;;9.57;59.96
75221;BME280;63802;53.232;6.570;2023-03-01T11:24:03;103112.25;;;9.64;59.08
75221;BME280;63802;53.232;6.570;2023-03-01T11:26:31;103113.84;;;9.52;58.59
75221;BME280;63802;53.232;6.570;2023-03-01T11:29:03;103115.63;;;9.42;58.43
75221;BME280;63802;53.232;6.570;2023-03-01T11:31:30;103094.97;;;9.23;57.66
75221;BME280;63802;53.232;6.570;2023-03-01T11:34:09;103115.09;;;9.73;57.02
75221;BME280;63802;53.232;6.570;2023-03-01T11:36:53;103116.31;;;9.80;56.30
75221;BME280;63802;53.232;6.570;2023-03-01T11:39:28;103119.03;;;9.67;56.27
75221;BME280;63802;53.232;6.570;2023-03-01T11:42:17;103113.03;;;9.65;55.72
75221;BME280;63802;53.232;6.570;2023-03-01T11:44:46;103104.66;;;9.48;55.03
75221;BME280;63802;53.232;6.570;2023-03-01T11:50:16;103098.75;;;10.00;55.62
75221;BME280;63802;53.232;6.570;2023-03-01T11:52:49;103103.63;;;10.30;55.49
75221;BME280;63802;53.232;6.570;2023-03-01T12:03:43;103097.34;;;10.02;54.17
75221;BME280;63802;53.232;6.570;2023-03-01T12:06:19;103099.19;;;10.21;54.10
75221;BME280;63802;53.232;6.570;2023-03-01T12:14:36;103081.13;;;9.52;54.31
75221;BME280;63802;53.232;6.570;2023-03-01T12:20:06;103068.97;;;9.44;54.54
75221;BME280;63802;53.232;6.570;2023-03-01T12:27:51;103046.00;;;9.64;56.40
75221;BME280;63802;53.232;6.570;2023-03-01T12:38:48;103044.44;;;10.17;55.08
75221;BME280;63802;53.232;6.570;2023-03-01T12:41:46;103040.09;;;9.29;53.06
75221;BME280;63802;53.232;6.570;2023-03-01T12:47:19;103032.78;;;9.71;52.49
75221;BME280;63802;53.232;6.570;2023-03-01T12:49:58;103017.84;;;9.09;53.10
75221;BME280;63802;53.232;6.570;2023-03-01T12:52:39;103019.84;;;9.03;54.30
75221;BME280;63802;53.232;6.570;2023-03-01T12:55:21;103019.53;;;9.51;54.31
75221;BME280;63802;53.232;6.570;2023-03-01T12:58:00;103020.66;;;9.77;53.75
75221;BME280;63802;53.232;6.570;2023-03-01T13:01:00;103019.66;;;9.73;54.98
75221;BME280;63802;53.232;6.570;2023-03-01T13:03:48;103014.50;;;9.58;54.76
75221;BME280;63802;53.232;6.570;2023-03-01T13:06:37;103013.69;;;9.71;53.55
75221;BME280;63802;53.232;6.570;2023-03-01T13:17:50;102999.03;;;8.94;54.89
75221;BME280;63802;53.232;6.570;2023-03-01T13:20:26;102994.06;;;9.28;54.49
75221;BME280;63802;53.232;6.570;2023-03-01T13:26:06;102995.75;;;8.78;54.88
75221;BME280;63802;53.232;6.570;2023-03-01T13:33:46;102983.38;;;9.31;54.79
75221;BME280;63802;53.232;6.570;2023-03-01T13:39:39;102980.78;;;9.54;54.52
75221;BME280;63802;53.232;6.570;2023-03-01T13:41:57;102985.41;;;9.39;54.34
75221;BME280;63802;53.232;6.570;2023-03-01T13:50:15;102978.41;;;9.06;55.06
75221;BME280;63802;53.232;6.570;2023-03-01T13:52:44;102977.22;;;8.80;56.20
75221;BME280;63802;53.232;6.570;2023-03-01T13:55:19;102977.03;;;8.90;55.75
75221;BME280;63802;53.232;6.570;2023-03-01T13:57:53;102977.25;;;8.94;55.59
75221;BME280;63802;53.232;6.570;2023-03-01T14:00:38;102949.78;;;8.90;57.05
75221;BME280;63802;53.232;6.570;2023-03-01T14:03:17;102966.47;;;8.70;56.77
75221;BME280;63802;53.232;6.570;2023-03-01T14:06:08;102947.81;;;8.45;56.75
75221;BME280;63802;53.232;6.570;2023-03-01T14:08:36;102969.63;;;8.21;57.56
75221;BME280;63802;53.232;6.570;2023-03-01T14:11:33;102965.38;;;8.15;58.15
75221;BME280;63802;53.232;6.570;2023-03-01T14:19:38;102969.69;;;7.97;59.76
75221;BME280;63802;53.232;6.570;2023-03-01T14:24:55;102953.06;;;7.80;60.50
75221;BME280;63802;53.232;6.570;2023-03-01T14:27:23;102936.31;;;7.73;60.54
75221;BME280;63802;53.232;6.570;2023-03-01T14:30:44;102942.13;;;7.85;60.88
75221;BME280;63802;53.232;6.570;2023-03-01T14:32:59;102944.13;;;7.98;60.82
75221;BME280;63802;53.232;6.570;2023-03-01T14:35:31;102939.72;;;8.02;60.15
75221;BME280;63802;53.232;6.570;2023-03-01T14:37:57;102928.53;;;8.04;60.09
75221;BME280;63802;53.232;6.570;2023-03-01T14:40:35;102933.47;;;8.02;60.23
75221;BME280;63802;53.232;6.570;2023-03-01T14:43:09;102921.50;;;7.84;60.60
75221;BME280;63802;53.232;6.570;2023-03-01T14:45:36;102907.06;;;7.65;60.91
75221;BME280;63802;53.232;6.570;2023-03-01T14:48:03;102925.56;;;7.63;61.66
75221;BME280;63802;53.232;6.570;2023-03-01T14:50:33;102914.69;;;7.63;61.21
75221;BME280;63802;53.232;6.570;2023-03-01T14:53:04;102915.97;;;7.47;61.66
75221;BME280;63802;53.232;6.570;2023-03-01T14:55:34;102896.69;;;7.25;62.08